<?xml version="1.0" encoding="UTF-8" standalone="no" ?>
<gpx xmlns="http://www.topografix.com/GPX/1/1" xmlns:xsi="http://www.w3.org/2001/XMLSchema-instance" xsi:schemaLocation="http://www.topografix.com/GPX/1/1 http://www.topografix.com/GPX/1/1/gpx.xsd" version="1.1" creator="VisuGPX - https://www.visugpx.com">
  <metadata>
    <name>VTT Tour / Mont Beauvoir</name>
    <desc><![CDATA[Balade facile à VTT, départ d\'Entre-Deux-Guiers.]]></desc>
  </metadata>
  <trk>
    <name><![CDATA[VTT Tour / Mont Beauvoir_2]]></name>
    <trkseg>
      <trkpt lat="45.50128" lon="5.80362">
        <ele>1314</ele>
        <time>2011-02-19T12:57:25Z</time>
      </trkpt>
      <trkpt lat="45.50129" lon="5.80361">
        <ele>1321</ele>
        <time>2011-02-19T12:57:26Z</time>
      </trkpt>
      <trkpt lat="45.50129" lon="5.80364">
        <ele>1317</ele>
        <time>2011-02-19T12:57:47Z</time>
      </trkpt>
      <trkpt lat="45.50129" lon="5.80365">
        <ele>1316</ele>
        <time>2011-02-19T12:59:47Z</time>
      </trkpt>
      <trkpt lat="45.50125" lon="5.80362">
        <ele>1315</ele>
        <time>2011-02-19T12:59:58Z</time>
      </trkpt>
      <trkpt lat="45.50126" lon="5.80356">
        <ele>1315</ele>
        <time>2011-02-19T13:01:31Z</time>
      </trkpt>
      <trkpt lat="45.50126" lon="5.80356">
        <ele>1315</ele>
        <time>2011-02-19T13:01:40Z</time>
      </trkpt>
      <trkpt lat="45.50143" lon="5.80332">
        <ele>1311</ele>
        <time>2011-02-19T13:01:54Z</time>
      </trkpt>
      <trkpt lat="45.50145" lon="5.80323">
        <ele>1309</ele>
        <time>2011-02-19T13:02:07Z</time>
      </trkpt>
      <trkpt lat="45.50143" lon="5.80322">
        <ele>1310</ele>
        <time>2011-02-19T13:05:09Z</time>
      </trkpt>
      <trkpt lat="45.5014" lon="5.80312">
        <ele>1308</ele>
        <time>2011-02-19T13:05:14Z</time>
      </trkpt>
      <trkpt lat="45.50136" lon="5.80302">
        <ele>1304</ele>
        <time>2011-02-19T13:05:18Z</time>
      </trkpt>
      <trkpt lat="45.50131" lon="5.80287">
        <ele>1301</ele>
        <time>2011-02-19T13:05:24Z</time>
      </trkpt>
      <trkpt lat="45.50126" lon="5.8029">
        <ele>1300</ele>
        <time>2011-02-19T13:05:31Z</time>
      </trkpt>
      <trkpt lat="45.50108" lon="5.80285">
        <ele>1297</ele>
        <time>2011-02-19T13:05:41Z</time>
      </trkpt>
      <trkpt lat="45.50083" lon="5.80281">
        <ele>1294</ele>
        <time>2011-02-19T13:05:52Z</time>
      </trkpt>
      <trkpt lat="45.50058" lon="5.80264">
        <ele>1291</ele>
        <time>2011-02-19T13:06:03Z</time>
      </trkpt>
      <trkpt lat="45.50043" lon="5.80253">
        <ele>1287</ele>
        <time>2011-02-19T13:06:09Z</time>
      </trkpt>
      <trkpt lat="45.50031" lon="5.80243">
        <ele>1285</ele>
        <time>2011-02-19T13:06:16Z</time>
      </trkpt>
      <trkpt lat="45.5001" lon="5.80231">
        <ele>1283</ele>
        <time>2011-02-19T13:06:26Z</time>
      </trkpt>
      <trkpt lat="45.50006" lon="5.8023">
        <ele>1282</ele>
        <time>2011-02-19T13:06:28Z</time>
      </trkpt>
      <trkpt lat="45.49992" lon="5.80219">
        <ele>1279</ele>
        <time>2011-02-19T13:06:35Z</time>
      </trkpt>
      <trkpt lat="45.49983" lon="5.80209">
        <ele>1277</ele>
        <time>2011-02-19T13:06:39Z</time>
      </trkpt>
      <trkpt lat="45.49966" lon="5.8019">
        <ele>1274</ele>
        <time>2011-02-19T13:06:47Z</time>
      </trkpt>
      <trkpt lat="45.49962" lon="5.80184">
        <ele>1273</ele>
        <time>2011-02-19T13:06:49Z</time>
      </trkpt>
      <trkpt lat="45.49942" lon="5.80156">
        <ele>1271</ele>
        <time>2011-02-19T13:06:59Z</time>
      </trkpt>
      <trkpt lat="45.49931" lon="5.80139">
        <ele>1268</ele>
        <time>2011-02-19T13:07:11Z</time>
      </trkpt>
      <trkpt lat="45.49931" lon="5.80139">
        <ele>1268</ele>
        <time>2011-02-19T13:07:47Z</time>
      </trkpt>
      <trkpt lat="45.49932" lon="5.80139">
        <ele>1268</ele>
        <time>2011-02-19T13:08:59Z</time>
      </trkpt>
      <trkpt lat="45.49931" lon="5.80138">
        <ele>1269</ele>
        <time>2011-02-19T13:09:05Z</time>
      </trkpt>
      <trkpt lat="45.49924" lon="5.80127">
        <ele>1265</ele>
        <time>2011-02-19T13:09:11Z</time>
      </trkpt>
      <trkpt lat="45.49918" lon="5.80117">
        <ele>1264</ele>
        <time>2011-02-19T13:09:15Z</time>
      </trkpt>
      <trkpt lat="45.49908" lon="5.80106">
        <ele>1260</ele>
        <time>2011-02-19T13:09:24Z</time>
      </trkpt>
      <trkpt lat="45.49898" lon="5.80093">
        <ele>1258</ele>
        <time>2011-02-19T13:09:29Z</time>
      </trkpt>
      <trkpt lat="45.49891" lon="5.80084">
        <ele>1257</ele>
        <time>2011-02-19T13:09:33Z</time>
      </trkpt>
      <trkpt lat="45.49874" lon="5.80067">
        <ele>1253</ele>
        <time>2011-02-19T13:09:42Z</time>
      </trkpt>
      <trkpt lat="45.49856" lon="5.80051">
        <ele>1249</ele>
        <time>2011-02-19T13:09:50Z</time>
      </trkpt>
      <trkpt lat="45.49837" lon="5.80038">
        <ele>1246</ele>
        <time>2011-02-19T13:09:57Z</time>
      </trkpt>
      <trkpt lat="45.49835" lon="5.80036">
        <ele>1246</ele>
        <time>2011-02-19T13:09:58Z</time>
      </trkpt>
      <trkpt lat="45.49821" lon="5.80026">
        <ele>1244</ele>
        <time>2011-02-19T13:10:03Z</time>
      </trkpt>
      <trkpt lat="45.4979" lon="5.80005">
        <ele>1240</ele>
        <time>2011-02-19T13:10:14Z</time>
      </trkpt>
      <trkpt lat="45.49759" lon="5.79981">
        <ele>1237</ele>
        <time>2011-02-19T13:10:26Z</time>
      </trkpt>
      <trkpt lat="45.49756" lon="5.79979">
        <ele>1237</ele>
        <time>2011-02-19T13:10:27Z</time>
      </trkpt>
      <trkpt lat="45.4972" lon="5.79949">
        <ele>1234</ele>
        <time>2011-02-19T13:10:39Z</time>
      </trkpt>
      <trkpt lat="45.49699" lon="5.79921">
        <ele>1231</ele>
        <time>2011-02-19T13:10:48Z</time>
      </trkpt>
      <trkpt lat="45.49693" lon="5.79912">
        <ele>1229</ele>
        <time>2011-02-19T13:10:51Z</time>
      </trkpt>
      <trkpt lat="45.49683" lon="5.799">
        <ele>1226</ele>
        <time>2011-02-19T13:10:57Z</time>
      </trkpt>
      <trkpt lat="45.4968" lon="5.79896">
        <ele>1225</ele>
        <time>2011-02-19T13:10:59Z</time>
      </trkpt>
      <trkpt lat="45.49678" lon="5.79891">
        <ele>1224</ele>
        <time>2011-02-19T13:11:01Z</time>
      </trkpt>
      <trkpt lat="45.4967" lon="5.79884">
        <ele>1222</ele>
        <time>2011-02-19T13:11:04Z</time>
      </trkpt>
      <trkpt lat="45.49647" lon="5.79866">
        <ele>1219</ele>
        <time>2011-02-19T13:11:12Z</time>
      </trkpt>
      <trkpt lat="45.49627" lon="5.79851">
        <ele>1215</ele>
        <time>2011-02-19T13:11:20Z</time>
      </trkpt>
      <trkpt lat="45.49624" lon="5.79849">
        <ele>1215</ele>
        <time>2011-02-19T13:11:21Z</time>
      </trkpt>
      <trkpt lat="45.49601" lon="5.79834">
        <ele>1212</ele>
        <time>2011-02-19T13:11:30Z</time>
      </trkpt>
      <trkpt lat="45.49598" lon="5.79832">
        <ele>1212</ele>
        <time>2011-02-19T13:11:31Z</time>
      </trkpt>
      <trkpt lat="45.49585" lon="5.79821">
        <ele>1209</ele>
        <time>2011-02-19T13:11:36Z</time>
      </trkpt>
      <trkpt lat="45.49571" lon="5.79816">
        <ele>1205</ele>
        <time>2011-02-19T13:11:41Z</time>
      </trkpt>
      <trkpt lat="45.49537" lon="5.79812">
        <ele>1202</ele>
        <time>2011-02-19T13:11:51Z</time>
      </trkpt>
      <trkpt lat="45.49529" lon="5.79815">
        <ele>1202</ele>
        <time>2011-02-19T13:12:01Z</time>
      </trkpt>
      <trkpt lat="45.49524" lon="5.79805">
        <ele>1202</ele>
        <time>2011-02-19T13:13:26Z</time>
      </trkpt>
      <trkpt lat="45.49503" lon="5.79787">
        <ele>1198</ele>
        <time>2011-02-19T13:13:35Z</time>
      </trkpt>
      <trkpt lat="45.495" lon="5.79784">
        <ele>1198</ele>
        <time>2011-02-19T13:13:36Z</time>
      </trkpt>
      <trkpt lat="45.49494" lon="5.79774">
        <ele>1197</ele>
        <time>2011-02-19T13:13:39Z</time>
      </trkpt>
      <trkpt lat="45.49487" lon="5.79748">
        <ele>1196</ele>
        <time>2011-02-19T13:13:46Z</time>
      </trkpt>
      <trkpt lat="45.49474" lon="5.79711">
        <ele>1194</ele>
        <time>2011-02-19T13:13:59Z</time>
      </trkpt>
      <trkpt lat="45.49465" lon="5.79701">
        <ele>1194</ele>
        <time>2011-02-19T13:14:10Z</time>
      </trkpt>
      <trkpt lat="45.49463" lon="5.79697">
        <ele>1194</ele>
        <time>2011-02-19T13:14:18Z</time>
      </trkpt>
      <trkpt lat="45.4946" lon="5.79692">
        <ele>1194</ele>
        <time>2011-02-19T13:14:21Z</time>
      </trkpt>
      <trkpt lat="45.49452" lon="5.79676">
        <ele>1194</ele>
        <time>2011-02-19T13:14:33Z</time>
      </trkpt>
      <trkpt lat="45.49451" lon="5.79671">
        <ele>1194</ele>
        <time>2011-02-19T13:14:35Z</time>
      </trkpt>
      <trkpt lat="45.49439" lon="5.79647">
        <ele>1195</ele>
        <time>2011-02-19T13:14:48Z</time>
      </trkpt>
      <trkpt lat="45.4943" lon="5.79634">
        <ele>1194</ele>
        <time>2011-02-19T13:15:00Z</time>
      </trkpt>
      <trkpt lat="45.49414" lon="5.79617">
        <ele>1190</ele>
        <time>2011-02-19T13:15:10Z</time>
      </trkpt>
      <trkpt lat="45.49395" lon="5.79604">
        <ele>1187</ele>
        <time>2011-02-19T13:15:20Z</time>
      </trkpt>
      <trkpt lat="45.49375" lon="5.79594">
        <ele>1184</ele>
        <time>2011-02-19T13:15:30Z</time>
      </trkpt>
      <trkpt lat="45.49367" lon="5.79589">
        <ele>1182</ele>
        <time>2011-02-19T13:15:33Z</time>
      </trkpt>
      <trkpt lat="45.49355" lon="5.7958">
        <ele>1180</ele>
        <time>2011-02-19T13:15:38Z</time>
      </trkpt>
      <trkpt lat="45.49342" lon="5.79571">
        <ele>1176</ele>
        <time>2011-02-19T13:15:44Z</time>
      </trkpt>
      <trkpt lat="45.49331" lon="5.79565">
        <ele>1173</ele>
        <time>2011-02-19T13:15:49Z</time>
      </trkpt>
      <trkpt lat="45.49321" lon="5.7956">
        <ele>1172</ele>
        <time>2011-02-19T13:15:53Z</time>
      </trkpt>
      <trkpt lat="45.49303" lon="5.79562">
        <ele>1168</ele>
        <time>2011-02-19T13:16:00Z</time>
      </trkpt>
      <trkpt lat="45.49295" lon="5.79575">
        <ele>1165</ele>
        <time>2011-02-19T13:16:11Z</time>
      </trkpt>
      <trkpt lat="45.49294" lon="5.79583">
        <ele>1165</ele>
        <time>2011-02-19T13:16:30Z</time>
      </trkpt>
      <trkpt lat="45.49287" lon="5.79586">
        <ele>1162</ele>
        <time>2011-02-19T13:17:10Z</time>
      </trkpt>
      <trkpt lat="45.4928" lon="5.79588">
        <ele>1159</ele>
        <time>2011-02-19T13:17:13Z</time>
      </trkpt>
      <trkpt lat="45.49236" lon="5.79611">
        <ele>1156</ele>
        <time>2011-02-19T13:17:21Z</time>
      </trkpt>
      <trkpt lat="45.49221" lon="5.79615">
        <ele>1153</ele>
        <time>2011-02-19T13:17:26Z</time>
      </trkpt>
      <trkpt lat="45.49205" lon="5.7962">
        <ele>1150</ele>
        <time>2011-02-19T13:17:31Z</time>
      </trkpt>
      <trkpt lat="45.49201" lon="5.79622">
        <ele>1149</ele>
        <time>2011-02-19T13:17:32Z</time>
      </trkpt>
      <trkpt lat="45.49188" lon="5.79619">
        <ele>1147</ele>
        <time>2011-02-19T13:17:37Z</time>
      </trkpt>
      <trkpt lat="45.49172" lon="5.79614">
        <ele>1144</ele>
        <time>2011-02-19T13:17:42Z</time>
      </trkpt>
      <trkpt lat="45.49158" lon="5.7961">
        <ele>1141</ele>
        <time>2011-02-19T13:17:46Z</time>
      </trkpt>
      <trkpt lat="45.49149" lon="5.79608">
        <ele>1139</ele>
        <time>2011-02-19T13:17:49Z</time>
      </trkpt>
      <trkpt lat="45.49136" lon="5.79605">
        <ele>1136</ele>
        <time>2011-02-19T13:17:54Z</time>
      </trkpt>
      <trkpt lat="45.49121" lon="5.79601">
        <ele>1133</ele>
        <time>2011-02-19T13:17:59Z</time>
      </trkpt>
      <trkpt lat="45.49105" lon="5.79598">
        <ele>1130</ele>
        <time>2011-02-19T13:18:04Z</time>
      </trkpt>
      <trkpt lat="45.49096" lon="5.79594">
        <ele>1128</ele>
        <time>2011-02-19T13:18:07Z</time>
      </trkpt>
      <trkpt lat="45.49081" lon="5.79585">
        <ele>1125</ele>
        <time>2011-02-19T13:18:11Z</time>
      </trkpt>
      <trkpt lat="45.49071" lon="5.79578">
        <ele>1124</ele>
        <time>2011-02-19T13:18:14Z</time>
      </trkpt>
      <trkpt lat="45.49053" lon="5.79559">
        <ele>1121</ele>
        <time>2011-02-19T13:18:20Z</time>
      </trkpt>
      <trkpt lat="45.49043" lon="5.79545">
        <ele>1120</ele>
        <time>2011-02-19T13:18:23Z</time>
      </trkpt>
      <trkpt lat="45.49028" lon="5.79512">
        <ele>1117</ele>
        <time>2011-02-19T13:18:30Z</time>
      </trkpt>
      <trkpt lat="45.49022" lon="5.79488">
        <ele>1115</ele>
        <time>2011-02-19T13:18:35Z</time>
      </trkpt>
      <trkpt lat="45.49018" lon="5.7946">
        <ele>1113</ele>
        <time>2011-02-19T13:18:40Z</time>
      </trkpt>
      <trkpt lat="45.49007" lon="5.79425">
        <ele>1110</ele>
        <time>2011-02-19T13:18:48Z</time>
      </trkpt>
      <trkpt lat="45.49003" lon="5.79413">
        <ele>1109</ele>
        <time>2011-02-19T13:18:52Z</time>
      </trkpt>
      <trkpt lat="45.49007" lon="5.794">
        <ele>1109</ele>
        <time>2011-02-19T13:19:02Z</time>
      </trkpt>
      <trkpt lat="45.49007" lon="5.79399">
        <ele>1109</ele>
        <time>2011-02-19T13:19:32Z</time>
      </trkpt>
      <trkpt lat="45.49008" lon="5.794">
        <ele>1110</ele>
        <time>2011-02-19T13:22:01Z</time>
      </trkpt>
      <trkpt lat="45.49015" lon="5.7939">
        <ele>1110</ele>
        <time>2011-02-19T13:22:36Z</time>
      </trkpt>
      <trkpt lat="45.4903" lon="5.79379">
        <ele>1109</ele>
        <time>2011-02-19T13:22:42Z</time>
      </trkpt>
      <trkpt lat="45.49037" lon="5.79372">
        <ele>1108</ele>
        <time>2011-02-19T13:22:44Z</time>
      </trkpt>
      <trkpt lat="45.49041" lon="5.79358">
        <ele>1108</ele>
        <time>2011-02-19T13:22:47Z</time>
      </trkpt>
      <trkpt lat="45.49046" lon="5.79307">
        <ele>1107</ele>
        <time>2011-02-19T13:23:02Z</time>
      </trkpt>
      <trkpt lat="45.49048" lon="5.79269">
        <ele>1106</ele>
        <time>2011-02-19T13:23:13Z</time>
      </trkpt>
      <trkpt lat="45.49048" lon="5.79255">
        <ele>1105</ele>
        <time>2011-02-19T13:23:17Z</time>
      </trkpt>
      <trkpt lat="45.49048" lon="5.7923">
        <ele>1103</ele>
        <time>2011-02-19T13:23:22Z</time>
      </trkpt>
      <trkpt lat="45.49047" lon="5.79209">
        <ele>1101</ele>
        <time>2011-02-19T13:23:25Z</time>
      </trkpt>
      <trkpt lat="45.49047" lon="5.79182">
        <ele>1099</ele>
        <time>2011-02-19T13:23:29Z</time>
      </trkpt>
      <trkpt lat="45.49032" lon="5.79156">
        <ele>1097</ele>
        <time>2011-02-19T13:23:34Z</time>
      </trkpt>
      <trkpt lat="45.49001" lon="5.79137">
        <ele>1095</ele>
        <time>2011-02-19T13:23:41Z</time>
      </trkpt>
      <trkpt lat="45.4896" lon="5.79105">
        <ele>1095</ele>
        <time>2011-02-19T13:23:53Z</time>
      </trkpt>
      <trkpt lat="45.48928" lon="5.7911">
        <ele>1096</ele>
        <time>2011-02-19T13:24:10Z</time>
      </trkpt>
      <trkpt lat="45.489" lon="5.79113">
        <ele>1097</ele>
        <time>2011-02-19T13:24:24Z</time>
      </trkpt>
      <trkpt lat="45.48886" lon="5.79116">
        <ele>1099</ele>
        <time>2011-02-19T13:24:39Z</time>
      </trkpt>
      <trkpt lat="45.48868" lon="5.79112">
        <ele>1100</ele>
        <time>2011-02-19T13:25:07Z</time>
      </trkpt>
      <trkpt lat="45.48838" lon="5.79092">
        <ele>1103</ele>
        <time>2011-02-19T13:25:27Z</time>
      </trkpt>
      <trkpt lat="45.48812" lon="5.79083">
        <ele>1105</ele>
        <time>2011-02-19T13:25:41Z</time>
      </trkpt>
      <trkpt lat="45.48809" lon="5.79084">
        <ele>1106</ele>
        <time>2011-02-19T13:25:44Z</time>
      </trkpt>
      <trkpt lat="45.48778" lon="5.79077">
        <ele>1109</ele>
        <time>2011-02-19T13:26:03Z</time>
      </trkpt>
      <trkpt lat="45.48751" lon="5.79064">
        <ele>1113</ele>
        <time>2011-02-19T13:26:19Z</time>
      </trkpt>
      <trkpt lat="45.48728" lon="5.79052">
        <ele>1115</ele>
        <time>2011-02-19T13:26:34Z</time>
      </trkpt>
      <trkpt lat="45.48695" lon="5.79028">
        <ele>1118</ele>
        <time>2011-02-19T13:26:55Z</time>
      </trkpt>
      <trkpt lat="45.48664" lon="5.79001">
        <ele>1121</ele>
        <time>2011-02-19T13:27:15Z</time>
      </trkpt>
      <trkpt lat="45.4863" lon="5.78943">
        <ele>1123</ele>
        <time>2011-02-19T13:27:40Z</time>
      </trkpt>
      <trkpt lat="45.48601" lon="5.7888">
        <ele>1125</ele>
        <time>2011-02-19T13:28:03Z</time>
      </trkpt>
      <trkpt lat="45.48589" lon="5.78806">
        <ele>1128</ele>
        <time>2011-02-19T13:28:26Z</time>
      </trkpt>
      <trkpt lat="45.48585" lon="5.78752">
        <ele>1130</ele>
        <time>2011-02-19T13:28:43Z</time>
      </trkpt>
      <trkpt lat="45.48569" lon="5.78716">
        <ele>1133</ele>
        <time>2011-02-19T13:28:59Z</time>
      </trkpt>
      <trkpt lat="45.48568" lon="5.78715">
        <ele>1132</ele>
        <time>2011-02-19T13:29:31Z</time>
      </trkpt>
      <trkpt lat="45.48566" lon="5.7872">
        <ele>1133</ele>
        <time>2011-02-19T13:33:13Z</time>
      </trkpt>
      <trkpt lat="45.48564" lon="5.78718">
        <ele>1134</ele>
        <time>2011-02-19T13:33:32Z</time>
      </trkpt>
      <trkpt lat="45.48561" lon="5.78717">
        <ele>1134</ele>
        <time>2011-02-19T13:33:44Z</time>
      </trkpt>
      <trkpt lat="45.4855" lon="5.78717">
        <ele>1134</ele>
        <time>2011-02-19T13:33:52Z</time>
      </trkpt>
      <trkpt lat="45.48539" lon="5.78719">
        <ele>1135</ele>
        <time>2011-02-19T13:33:59Z</time>
      </trkpt>
      <trkpt lat="45.48536" lon="5.78721">
        <ele>1136</ele>
        <time>2011-02-19T13:34:01Z</time>
      </trkpt>
      <trkpt lat="45.48522" lon="5.78724">
        <ele>1136</ele>
        <time>2011-02-19T13:34:09Z</time>
      </trkpt>
      <trkpt lat="45.48518" lon="5.78725">
        <ele>1136</ele>
        <time>2011-02-19T13:34:22Z</time>
      </trkpt>
      <trkpt lat="45.48518" lon="5.78727">
        <ele>1135</ele>
        <time>2011-02-19T13:35:08Z</time>
      </trkpt>
      <trkpt lat="45.48518" lon="5.78726">
        <ele>1135</ele>
        <time>2011-02-19T13:35:15Z</time>
      </trkpt>
      <trkpt lat="45.48508" lon="5.7872">
        <ele>1134</ele>
        <time>2011-02-19T13:35:19Z</time>
      </trkpt>
      <trkpt lat="45.48495" lon="5.78718">
        <ele>1133</ele>
        <time>2011-02-19T13:35:22Z</time>
      </trkpt>
      <trkpt lat="45.48478" lon="5.78715">
        <ele>1130</ele>
        <time>2011-02-19T13:35:25Z</time>
      </trkpt>
      <trkpt lat="45.48448" lon="5.78708">
        <ele>1124</ele>
        <time>2011-02-19T13:35:29Z</time>
      </trkpt>
      <trkpt lat="45.48422" lon="5.78702">
        <ele>1121</ele>
        <time>2011-02-19T13:35:32Z</time>
      </trkpt>
      <trkpt lat="45.48381" lon="5.78698">
        <ele>1116</ele>
        <time>2011-02-19T13:35:36Z</time>
      </trkpt>
      <trkpt lat="45.48351" lon="5.78694">
        <ele>1113</ele>
        <time>2011-02-19T13:35:39Z</time>
      </trkpt>
      <trkpt lat="45.48298" lon="5.78683">
        <ele>1109</ele>
        <time>2011-02-19T13:35:44Z</time>
      </trkpt>
      <trkpt lat="45.48255" lon="5.78684">
        <ele>1105</ele>
        <time>2011-02-19T13:35:48Z</time>
      </trkpt>
      <trkpt lat="45.48236" lon="5.78691">
        <ele>1103</ele>
        <time>2011-02-19T13:35:50Z</time>
      </trkpt>
      <trkpt lat="45.48196" lon="5.78711">
        <ele>1099</ele>
        <time>2011-02-19T13:35:55Z</time>
      </trkpt>
      <trkpt lat="45.48188" lon="5.78715">
        <ele>1097</ele>
        <time>2011-02-19T13:35:56Z</time>
      </trkpt>
      <trkpt lat="45.48164" lon="5.78718">
        <ele>1094</ele>
        <time>2011-02-19T13:35:59Z</time>
      </trkpt>
      <trkpt lat="45.48133" lon="5.78709">
        <ele>1089</ele>
        <time>2011-02-19T13:36:03Z</time>
      </trkpt>
      <trkpt lat="45.48108" lon="5.78701">
        <ele>1085</ele>
        <time>2011-02-19T13:36:06Z</time>
      </trkpt>
      <trkpt lat="45.48091" lon="5.78695">
        <ele>1084</ele>
        <time>2011-02-19T13:36:08Z</time>
      </trkpt>
      <trkpt lat="45.48052" lon="5.78651">
        <ele>1077</ele>
        <time>2011-02-19T13:36:13Z</time>
      </trkpt>
      <trkpt lat="45.48035" lon="5.78632">
        <ele>1074</ele>
        <time>2011-02-19T13:36:15Z</time>
      </trkpt>
      <trkpt lat="45.4801" lon="5.78604">
        <ele>1070</ele>
        <time>2011-02-19T13:36:18Z</time>
      </trkpt>
      <trkpt lat="45.47986" lon="5.7858">
        <ele>1066</ele>
        <time>2011-02-19T13:36:21Z</time>
      </trkpt>
      <trkpt lat="45.47957" lon="5.78533">
        <ele>1061</ele>
        <time>2011-02-19T13:36:25Z</time>
      </trkpt>
      <trkpt lat="45.47942" lon="5.78501">
        <ele>1059</ele>
        <time>2011-02-19T13:36:28Z</time>
      </trkpt>
      <trkpt lat="45.47918" lon="5.78477">
        <ele>1055</ele>
        <time>2011-02-19T13:36:31Z</time>
      </trkpt>
      <trkpt lat="45.47911" lon="5.78471">
        <ele>1053</ele>
        <time>2011-02-19T13:36:32Z</time>
      </trkpt>
      <trkpt lat="45.47881" lon="5.78455">
        <ele>1047</ele>
        <time>2011-02-19T13:36:35Z</time>
      </trkpt>
      <trkpt lat="45.47856" lon="5.78438">
        <ele>1043</ele>
        <time>2011-02-19T13:36:37Z</time>
      </trkpt>
      <trkpt lat="45.47833" lon="5.78425">
        <ele>1039</ele>
        <time>2011-02-19T13:36:39Z</time>
      </trkpt>
      <trkpt lat="45.47807" lon="5.78415">
        <ele>1035</ele>
        <time>2011-02-19T13:36:41Z</time>
      </trkpt>
      <trkpt lat="45.47783" lon="5.78405">
        <ele>1031</ele>
        <time>2011-02-19T13:36:43Z</time>
      </trkpt>
      <trkpt lat="45.47749" lon="5.78387">
        <ele>1028</ele>
        <time>2011-02-19T13:36:46Z</time>
      </trkpt>
      <trkpt lat="45.47696" lon="5.78375">
        <ele>1023</ele>
        <time>2011-02-19T13:36:51Z</time>
      </trkpt>
      <trkpt lat="45.47675" lon="5.78376">
        <ele>1020</ele>
        <time>2011-02-19T13:36:54Z</time>
      </trkpt>
      <trkpt lat="45.47673" lon="5.78386">
        <ele>1022</ele>
        <time>2011-02-19T13:36:57Z</time>
      </trkpt>
      <trkpt lat="45.47677" lon="5.78392">
        <ele>1022</ele>
        <time>2011-02-19T13:37:12Z</time>
      </trkpt>
      <trkpt lat="45.47677" lon="5.78392">
        <ele>1022</ele>
        <time>2011-02-19T13:37:23Z</time>
      </trkpt>
      <trkpt lat="45.47662" lon="5.78366">
        <ele>1024</ele>
        <time>2011-02-19T13:37:37Z</time>
      </trkpt>
      <trkpt lat="45.47632" lon="5.78332">
        <ele>1023</ele>
        <time>2011-02-19T13:37:54Z</time>
      </trkpt>
      <trkpt lat="45.47631" lon="5.78327">
        <ele>1023</ele>
        <time>2011-02-19T13:38:05Z</time>
      </trkpt>
      <trkpt lat="45.47638" lon="5.78336">
        <ele>1025</ele>
        <time>2011-02-19T13:39:12Z</time>
      </trkpt>
      <trkpt lat="45.47637" lon="5.78336">
        <ele>1025</ele>
        <time>2011-02-19T13:39:46Z</time>
      </trkpt>
      <trkpt lat="45.4763" lon="5.78323">
        <ele>1022</ele>
        <time>2011-02-19T13:39:51Z</time>
      </trkpt>
      <trkpt lat="45.47601" lon="5.78286">
        <ele>1019</ele>
        <time>2011-02-19T13:39:58Z</time>
      </trkpt>
      <trkpt lat="45.47597" lon="5.7828">
        <ele>1018</ele>
        <time>2011-02-19T13:39:59Z</time>
      </trkpt>
      <trkpt lat="45.47584" lon="5.78268">
        <ele>1016</ele>
        <time>2011-02-19T13:40:01Z</time>
      </trkpt>
      <trkpt lat="45.4756" lon="5.7825">
        <ele>1011</ele>
        <time>2011-02-19T13:40:05Z</time>
      </trkpt>
      <trkpt lat="45.47547" lon="5.78243">
        <ele>1010</ele>
        <time>2011-02-19T13:40:06Z</time>
      </trkpt>
      <trkpt lat="45.47525" lon="5.78204">
        <ele>1006</ele>
        <time>2011-02-19T13:40:10Z</time>
      </trkpt>
      <trkpt lat="45.47515" lon="5.78153">
        <ele>999</ele>
        <time>2011-02-19T13:40:14Z</time>
      </trkpt>
      <trkpt lat="45.4749" lon="5.78129">
        <ele>998</ele>
        <time>2011-02-19T13:40:18Z</time>
      </trkpt>
      <trkpt lat="45.47477" lon="5.78124">
        <ele>995</ele>
        <time>2011-02-19T13:40:20Z</time>
      </trkpt>
      <trkpt lat="45.47461" lon="5.78098">
        <ele>988</ele>
        <time>2011-02-19T13:40:24Z</time>
      </trkpt>
      <trkpt lat="45.47446" lon="5.78067">
        <ele>985</ele>
        <time>2011-02-19T13:40:27Z</time>
      </trkpt>
      <trkpt lat="45.4743" lon="5.78041">
        <ele>983</ele>
        <time>2011-02-19T13:40:30Z</time>
      </trkpt>
      <trkpt lat="45.47418" lon="5.78001">
        <ele>976</ele>
        <time>2011-02-19T13:40:34Z</time>
      </trkpt>
      <trkpt lat="45.47411" lon="5.77964">
        <ele>974</ele>
        <time>2011-02-19T13:40:37Z</time>
      </trkpt>
      <trkpt lat="45.47409" lon="5.77941">
        <ele>971</ele>
        <time>2011-02-19T13:40:39Z</time>
      </trkpt>
      <trkpt lat="45.47411" lon="5.77904">
        <ele>967</ele>
        <time>2011-02-19T13:40:42Z</time>
      </trkpt>
      <trkpt lat="45.47402" lon="5.77858">
        <ele>961</ele>
        <time>2011-02-19T13:40:46Z</time>
      </trkpt>
      <trkpt lat="45.47395" lon="5.77843">
        <ele>960</ele>
        <time>2011-02-19T13:40:48Z</time>
      </trkpt>
      <trkpt lat="45.4739" lon="5.77815">
        <ele>956</ele>
        <time>2011-02-19T13:40:51Z</time>
      </trkpt>
      <trkpt lat="45.47387" lon="5.77793">
        <ele>955</ele>
        <time>2011-02-19T13:40:53Z</time>
      </trkpt>
      <trkpt lat="45.4737" lon="5.7777">
        <ele>951</ele>
        <time>2011-02-19T13:40:56Z</time>
      </trkpt>
      <trkpt lat="45.4735" lon="5.77756">
        <ele>948</ele>
        <time>2011-02-19T13:40:59Z</time>
      </trkpt>
      <trkpt lat="45.47339" lon="5.77751">
        <ele>946</ele>
        <time>2011-02-19T13:41:01Z</time>
      </trkpt>
      <trkpt lat="45.47311" lon="5.77753">
        <ele>947</ele>
        <time>2011-02-19T13:41:07Z</time>
      </trkpt>
      <trkpt lat="45.47311" lon="5.77753">
        <ele>948</ele>
        <time>2011-02-19T13:42:10Z</time>
      </trkpt>
      <trkpt lat="45.47313" lon="5.77751">
        <ele>950</ele>
        <time>2011-02-19T13:44:18Z</time>
      </trkpt>
      <trkpt lat="45.47314" lon="5.77752">
        <ele>951</ele>
        <time>2011-02-19T13:45:28Z</time>
      </trkpt>
      <trkpt lat="45.47316" lon="5.77736">
        <ele>949</ele>
        <time>2011-02-19T13:45:32Z</time>
      </trkpt>
      <trkpt lat="45.47326" lon="5.77702">
        <ele>945</ele>
        <time>2011-02-19T13:45:36Z</time>
      </trkpt>
      <trkpt lat="45.47333" lon="5.7768">
        <ele>942</ele>
        <time>2011-02-19T13:45:38Z</time>
      </trkpt>
      <trkpt lat="45.47336" lon="5.77669">
        <ele>940</ele>
        <time>2011-02-19T13:45:39Z</time>
      </trkpt>
      <trkpt lat="45.47357" lon="5.77639">
        <ele>937</ele>
        <time>2011-02-19T13:45:43Z</time>
      </trkpt>
      <trkpt lat="45.47361" lon="5.7762">
        <ele>933</ele>
        <time>2011-02-19T13:45:47Z</time>
      </trkpt>
      <trkpt lat="45.47356" lon="5.77616">
        <ele>931</ele>
        <time>2011-02-19T13:45:48Z</time>
      </trkpt>
      <trkpt lat="45.47337" lon="5.77606">
        <ele>925</ele>
        <time>2011-02-19T13:45:51Z</time>
      </trkpt>
      <trkpt lat="45.47306" lon="5.77597">
        <ele>919</ele>
        <time>2011-02-19T13:45:54Z</time>
      </trkpt>
      <trkpt lat="45.47281" lon="5.77591">
        <ele>915</ele>
        <time>2011-02-19T13:45:56Z</time>
      </trkpt>
      <trkpt lat="45.4723" lon="5.77617">
        <ele>908</ele>
        <time>2011-02-19T13:46:00Z</time>
      </trkpt>
      <trkpt lat="45.472" lon="5.77645">
        <ele>905</ele>
        <time>2011-02-19T13:46:03Z</time>
      </trkpt>
      <trkpt lat="45.47177" lon="5.77668">
        <ele>902</ele>
        <time>2011-02-19T13:46:06Z</time>
      </trkpt>
      <trkpt lat="45.47159" lon="5.77682">
        <ele>904</ele>
        <time>2011-02-19T13:46:13Z</time>
      </trkpt>
      <trkpt lat="45.47159" lon="5.77682">
        <ele>903</ele>
        <time>2011-02-19T13:46:24Z</time>
      </trkpt>
      <trkpt lat="45.47154" lon="5.77679">
        <ele>903</ele>
        <time>2011-02-19T13:46:39Z</time>
      </trkpt>
      <trkpt lat="45.47143" lon="5.77675">
        <ele>900</ele>
        <time>2011-02-19T13:46:44Z</time>
      </trkpt>
      <trkpt lat="45.4714" lon="5.77669">
        <ele>901</ele>
        <time>2011-02-19T13:46:54Z</time>
      </trkpt>
      <trkpt lat="45.47141" lon="5.77668">
        <ele>900</ele>
        <time>2011-02-19T13:47:07Z</time>
      </trkpt>
      <trkpt lat="45.47127" lon="5.77655">
        <ele>899</ele>
        <time>2011-02-19T13:47:18Z</time>
      </trkpt>
      <trkpt lat="45.47127" lon="5.77655">
        <ele>898</ele>
        <time>2011-02-19T13:48:18Z</time>
      </trkpt>
      <trkpt lat="45.47128" lon="5.77656">
        <ele>898</ele>
        <time>2011-02-19T13:52:30Z</time>
      </trkpt>
      <trkpt lat="45.47128" lon="5.77655">
        <ele>898</ele>
        <time>2011-02-19T13:53:08Z</time>
      </trkpt>
      <trkpt lat="45.47126" lon="5.77643">
        <ele>897</ele>
        <time>2011-02-19T13:53:12Z</time>
      </trkpt>
      <trkpt lat="45.47138" lon="5.77619">
        <ele>893</ele>
        <time>2011-02-19T13:53:16Z</time>
      </trkpt>
      <trkpt lat="45.47154" lon="5.7757">
        <ele>886</ele>
        <time>2011-02-19T13:53:21Z</time>
      </trkpt>
      <trkpt lat="45.47159" lon="5.77529">
        <ele>882</ele>
        <time>2011-02-19T13:53:24Z</time>
      </trkpt>
      <trkpt lat="45.47163" lon="5.77497">
        <ele>877</ele>
        <time>2011-02-19T13:53:26Z</time>
      </trkpt>
      <trkpt lat="45.47169" lon="5.77446">
        <ele>872</ele>
        <time>2011-02-19T13:53:29Z</time>
      </trkpt>
      <trkpt lat="45.47174" lon="5.77382">
        <ele>869</ele>
        <time>2011-02-19T13:53:33Z</time>
      </trkpt>
      <trkpt lat="45.47187" lon="5.77341">
        <ele>868</ele>
        <time>2011-02-19T13:53:37Z</time>
      </trkpt>
      <trkpt lat="45.47183" lon="5.77315">
        <ele>862</ele>
        <time>2011-02-19T13:53:40Z</time>
      </trkpt>
      <trkpt lat="45.47178" lon="5.77307">
        <ele>861</ele>
        <time>2011-02-19T13:53:41Z</time>
      </trkpt>
      <trkpt lat="45.47167" lon="5.77277">
        <ele>856</ele>
        <time>2011-02-19T13:53:44Z</time>
      </trkpt>
      <trkpt lat="45.47164" lon="5.77225">
        <ele>850</ele>
        <time>2011-02-19T13:53:48Z</time>
      </trkpt>
      <trkpt lat="45.47128" lon="5.77181">
        <ele>848</ele>
        <time>2011-02-19T13:53:53Z</time>
      </trkpt>
      <trkpt lat="45.47119" lon="5.77177">
        <ele>847</ele>
        <time>2011-02-19T13:53:54Z</time>
      </trkpt>
      <trkpt lat="45.4706" lon="5.77161">
        <ele>843</ele>
        <time>2011-02-19T13:54:00Z</time>
      </trkpt>
      <trkpt lat="45.47041" lon="5.77156">
        <ele>842</ele>
        <time>2011-02-19T13:54:02Z</time>
      </trkpt>
      <trkpt lat="45.47" lon="5.77147">
        <ele>837</ele>
        <time>2011-02-19T13:54:06Z</time>
      </trkpt>
      <trkpt lat="45.46967" lon="5.77133">
        <ele>832</ele>
        <time>2011-02-19T13:54:09Z</time>
      </trkpt>
      <trkpt lat="45.46944" lon="5.77122">
        <ele>829</ele>
        <time>2011-02-19T13:54:11Z</time>
      </trkpt>
      <trkpt lat="45.46921" lon="5.7711">
        <ele>825</ele>
        <time>2011-02-19T13:54:13Z</time>
      </trkpt>
      <trkpt lat="45.46884" lon="5.77067">
        <ele>818</ele>
        <time>2011-02-19T13:54:17Z</time>
      </trkpt>
      <trkpt lat="45.46858" lon="5.77038">
        <ele>811</ele>
        <time>2011-02-19T13:54:20Z</time>
      </trkpt>
      <trkpt lat="45.46815" lon="5.76986">
        <ele>807</ele>
        <time>2011-02-19T13:54:25Z</time>
      </trkpt>
      <trkpt lat="45.46783" lon="5.76947">
        <ele>808</ele>
        <time>2011-02-19T13:54:31Z</time>
      </trkpt>
      <trkpt lat="45.46761" lon="5.76933">
        <ele>804</ele>
        <time>2011-02-19T13:54:52Z</time>
      </trkpt>
      <trkpt lat="45.46749" lon="5.76923">
        <ele>801</ele>
        <time>2011-02-19T13:54:54Z</time>
      </trkpt>
      <trkpt lat="45.46716" lon="5.76906">
        <ele>797</ele>
        <time>2011-02-19T13:54:58Z</time>
      </trkpt>
      <trkpt lat="45.46665" lon="5.76905">
        <ele>789</ele>
        <time>2011-02-19T13:55:03Z</time>
      </trkpt>
      <trkpt lat="45.46624" lon="5.76884">
        <ele>784</ele>
        <time>2011-02-19T13:55:07Z</time>
      </trkpt>
      <trkpt lat="45.46579" lon="5.76861">
        <ele>778</ele>
        <time>2011-02-19T13:55:11Z</time>
      </trkpt>
      <trkpt lat="45.46556" lon="5.7685">
        <ele>775</ele>
        <time>2011-02-19T13:55:13Z</time>
      </trkpt>
      <trkpt lat="45.4652" lon="5.76831">
        <ele>771</ele>
        <time>2011-02-19T13:55:16Z</time>
      </trkpt>
      <trkpt lat="45.46497" lon="5.76824">
        <ele>771</ele>
        <time>2011-02-19T13:55:18Z</time>
      </trkpt>
      <trkpt lat="45.46463" lon="5.76829">
        <ele>768</ele>
        <time>2011-02-19T13:55:22Z</time>
      </trkpt>
      <trkpt lat="45.46445" lon="5.7686">
        <ele>763</ele>
        <time>2011-02-19T13:55:25Z</time>
      </trkpt>
      <trkpt lat="45.46451" lon="5.76905">
        <ele>760</ele>
        <time>2011-02-19T13:55:28Z</time>
      </trkpt>
      <trkpt lat="45.46456" lon="5.76919">
        <ele>760</ele>
        <time>2011-02-19T13:55:29Z</time>
      </trkpt>
      <trkpt lat="45.46462" lon="5.76931">
        <ele>759</ele>
        <time>2011-02-19T13:55:30Z</time>
      </trkpt>
      <trkpt lat="45.46495" lon="5.76992">
        <ele>755</ele>
        <time>2011-02-19T13:55:35Z</time>
      </trkpt>
      <trkpt lat="45.46507" lon="5.77008">
        <ele>756</ele>
        <time>2011-02-19T13:55:37Z</time>
      </trkpt>
      <trkpt lat="45.46505" lon="5.77039">
        <ele>751</ele>
        <time>2011-02-19T13:55:42Z</time>
      </trkpt>
      <trkpt lat="45.46486" lon="5.77024">
        <ele>749</ele>
        <time>2011-02-19T13:55:45Z</time>
      </trkpt>
      <trkpt lat="45.46468" lon="5.76998">
        <ele>746</ele>
        <time>2011-02-19T13:55:48Z</time>
      </trkpt>
      <trkpt lat="45.46444" lon="5.76978">
        <ele>742</ele>
        <time>2011-02-19T13:55:51Z</time>
      </trkpt>
      <trkpt lat="45.46434" lon="5.76973">
        <ele>741</ele>
        <time>2011-02-19T13:55:52Z</time>
      </trkpt>
      <trkpt lat="45.46392" lon="5.76954">
        <ele>736</ele>
        <time>2011-02-19T13:55:56Z</time>
      </trkpt>
      <trkpt lat="45.4637" lon="5.76943">
        <ele>732</ele>
        <time>2011-02-19T13:55:58Z</time>
      </trkpt>
      <trkpt lat="45.46359" lon="5.76936">
        <ele>731</ele>
        <time>2011-02-19T13:55:59Z</time>
      </trkpt>
      <trkpt lat="45.46319" lon="5.76896">
        <ele>726</ele>
        <time>2011-02-19T13:56:03Z</time>
      </trkpt>
      <trkpt lat="45.46285" lon="5.76888">
        <ele>722</ele>
        <time>2011-02-19T13:56:06Z</time>
      </trkpt>
      <trkpt lat="45.4626" lon="5.7689">
        <ele>719</ele>
        <time>2011-02-19T13:56:08Z</time>
      </trkpt>
      <trkpt lat="45.46218" lon="5.76866">
        <ele>715</ele>
        <time>2011-02-19T13:56:12Z</time>
      </trkpt>
      <trkpt lat="45.46215" lon="5.7681">
        <ele>712</ele>
        <time>2011-02-19T13:56:16Z</time>
      </trkpt>
      <trkpt lat="45.46218" lon="5.76799">
        <ele>712</ele>
        <time>2011-02-19T13:56:17Z</time>
      </trkpt>
      <trkpt lat="45.46223" lon="5.76783">
        <ele>713</ele>
        <time>2011-02-19T13:56:19Z</time>
      </trkpt>
      <trkpt lat="45.462" lon="5.76787">
        <ele>710</ele>
        <time>2011-02-19T13:56:27Z</time>
      </trkpt>
      <trkpt lat="45.46184" lon="5.76792">
        <ele>707</ele>
        <time>2011-02-19T13:56:31Z</time>
      </trkpt>
      <trkpt lat="45.4618" lon="5.76794">
        <ele>706</ele>
        <time>2011-02-19T13:56:32Z</time>
      </trkpt>
      <trkpt lat="45.46143" lon="5.7681">
        <ele>703</ele>
        <time>2011-02-19T13:56:41Z</time>
      </trkpt>
      <trkpt lat="45.46121" lon="5.76823">
        <ele>700</ele>
        <time>2011-02-19T13:56:45Z</time>
      </trkpt>
      <trkpt lat="45.46111" lon="5.7683">
        <ele>699</ele>
        <time>2011-02-19T13:56:47Z</time>
      </trkpt>
      <trkpt lat="45.46091" lon="5.76833">
        <ele>697</ele>
        <time>2011-02-19T13:56:52Z</time>
      </trkpt>
      <trkpt lat="45.46068" lon="5.76826">
        <ele>692</ele>
        <time>2011-02-19T13:56:58Z</time>
      </trkpt>
      <trkpt lat="45.4605" lon="5.76816">
        <ele>688</ele>
        <time>2011-02-19T13:57:02Z</time>
      </trkpt>
      <trkpt lat="45.46034" lon="5.7681">
        <ele>685</ele>
        <time>2011-02-19T13:57:05Z</time>
      </trkpt>
      <trkpt lat="45.46017" lon="5.7681">
        <ele>681</ele>
        <time>2011-02-19T13:57:08Z</time>
      </trkpt>
      <trkpt lat="45.46" lon="5.76816">
        <ele>679</ele>
        <time>2011-02-19T13:57:17Z</time>
      </trkpt>
      <trkpt lat="45.46" lon="5.76816">
        <ele>679</ele>
        <time>2011-02-19T13:58:08Z</time>
      </trkpt>
      <trkpt lat="45.45998" lon="5.76816">
        <ele>678</ele>
        <time>2011-02-19T13:58:31Z</time>
      </trkpt>
      <trkpt lat="45.45998" lon="5.76817">
        <ele>679</ele>
        <time>2011-02-19T13:59:37Z</time>
      </trkpt>
      <trkpt lat="45.46" lon="5.76809">
        <ele>680</ele>
        <time>2011-02-19T14:00:03Z</time>
      </trkpt>
      <trkpt lat="45.46004" lon="5.76797">
        <ele>681</ele>
        <time>2011-02-19T14:00:17Z</time>
      </trkpt>
      <trkpt lat="45.46001" lon="5.76763">
        <ele>681</ele>
        <time>2011-02-19T14:00:28Z</time>
      </trkpt>
      <trkpt lat="45.46" lon="5.76756">
        <ele>680</ele>
        <time>2011-02-19T14:00:30Z</time>
      </trkpt>
      <trkpt lat="45.46008" lon="5.76733">
        <ele>678</ele>
        <time>2011-02-19T14:00:35Z</time>
      </trkpt>
      <trkpt lat="45.46004" lon="5.76711">
        <ele>674</ele>
        <time>2011-02-19T14:00:40Z</time>
      </trkpt>
      <trkpt lat="45.45997" lon="5.76685">
        <ele>670</ele>
        <time>2011-02-19T14:00:46Z</time>
      </trkpt>
      <trkpt lat="45.45996" lon="5.76667">
        <ele>666</ele>
        <time>2011-02-19T14:00:49Z</time>
      </trkpt>
      <trkpt lat="45.45997" lon="5.76659">
        <ele>666</ele>
        <time>2011-02-19T14:00:50Z</time>
      </trkpt>
      <trkpt lat="45.45994" lon="5.76635">
        <ele>661</ele>
        <time>2011-02-19T14:00:54Z</time>
      </trkpt>
      <trkpt lat="45.4599" lon="5.76628">
        <ele>660</ele>
        <time>2011-02-19T14:00:57Z</time>
      </trkpt>
      <trkpt lat="45.45987" lon="5.76605">
        <ele>655</ele>
        <time>2011-02-19T14:01:03Z</time>
      </trkpt>
      <trkpt lat="45.45987" lon="5.76602">
        <ele>655</ele>
        <time>2011-02-19T14:01:04Z</time>
      </trkpt>
      <trkpt lat="45.45984" lon="5.76589">
        <ele>653</ele>
        <time>2011-02-19T14:01:08Z</time>
      </trkpt>
      <trkpt lat="45.45985" lon="5.76587">
        <ele>653</ele>
        <time>2011-02-19T14:01:22Z</time>
      </trkpt>
      <trkpt lat="45.45985" lon="5.76587">
        <ele>653</ele>
        <time>2011-02-19T14:02:03Z</time>
      </trkpt>
      <trkpt lat="45.45979" lon="5.76572">
        <ele>649</ele>
        <time>2011-02-19T14:02:08Z</time>
      </trkpt>
      <trkpt lat="45.45978" lon="5.76566">
        <ele>648</ele>
        <time>2011-02-19T14:02:09Z</time>
      </trkpt>
      <trkpt lat="45.45976" lon="5.76544">
        <ele>645</ele>
        <time>2011-02-19T14:02:13Z</time>
      </trkpt>
      <trkpt lat="45.45968" lon="5.76524">
        <ele>641</ele>
        <time>2011-02-19T14:02:19Z</time>
      </trkpt>
      <trkpt lat="45.45963" lon="5.76518">
        <ele>640</ele>
        <time>2011-02-19T14:02:21Z</time>
      </trkpt>
      <trkpt lat="45.45943" lon="5.76514">
        <ele>636</ele>
        <time>2011-02-19T14:02:25Z</time>
      </trkpt>
      <trkpt lat="45.45922" lon="5.76515">
        <ele>634</ele>
        <time>2011-02-19T14:02:28Z</time>
      </trkpt>
      <trkpt lat="45.45904" lon="5.76514">
        <ele>631</ele>
        <time>2011-02-19T14:02:31Z</time>
      </trkpt>
      <trkpt lat="45.45875" lon="5.765">
        <ele>627</ele>
        <time>2011-02-19T14:02:36Z</time>
      </trkpt>
      <trkpt lat="45.45871" lon="5.76496">
        <ele>627</ele>
        <time>2011-02-19T14:02:37Z</time>
      </trkpt>
      <trkpt lat="45.45866" lon="5.76493">
        <ele>626</ele>
        <time>2011-02-19T14:02:38Z</time>
      </trkpt>
      <trkpt lat="45.45835" lon="5.76493">
        <ele>625</ele>
        <time>2011-02-19T14:02:43Z</time>
      </trkpt>
      <trkpt lat="45.45819" lon="5.76493">
        <ele>623</ele>
        <time>2011-02-19T14:02:46Z</time>
      </trkpt>
      <trkpt lat="45.45784" lon="5.76509">
        <ele>621</ele>
        <time>2011-02-19T14:02:53Z</time>
      </trkpt>
      <trkpt lat="45.45774" lon="5.76536">
        <ele>619</ele>
        <time>2011-02-19T14:02:58Z</time>
      </trkpt>
      <trkpt lat="45.45756" lon="5.76554">
        <ele>615</ele>
        <time>2011-02-19T14:03:03Z</time>
      </trkpt>
      <trkpt lat="45.45746" lon="5.76563">
        <ele>613</ele>
        <time>2011-02-19T14:03:06Z</time>
      </trkpt>
      <trkpt lat="45.45726" lon="5.76593">
        <ele>610</ele>
        <time>2011-02-19T14:03:11Z</time>
      </trkpt>
      <trkpt lat="45.45718" lon="5.76627">
        <ele>606</ele>
        <time>2011-02-19T14:03:17Z</time>
      </trkpt>
      <trkpt lat="45.45709" lon="5.76637">
        <ele>605</ele>
        <time>2011-02-19T14:03:27Z</time>
      </trkpt>
      <trkpt lat="45.45705" lon="5.76641">
        <ele>604</ele>
        <time>2011-02-19T14:03:29Z</time>
      </trkpt>
      <trkpt lat="45.45703" lon="5.76642">
        <ele>604</ele>
        <time>2011-02-19T14:03:46Z</time>
      </trkpt>
      <trkpt lat="45.457" lon="5.76646">
        <ele>603</ele>
        <time>2011-02-19T14:04:04Z</time>
      </trkpt>
      <trkpt lat="45.45685" lon="5.76645">
        <ele>598</ele>
        <time>2011-02-19T14:04:08Z</time>
      </trkpt>
      <trkpt lat="45.45673" lon="5.76643">
        <ele>595</ele>
        <time>2011-02-19T14:04:11Z</time>
      </trkpt>
      <trkpt lat="45.45658" lon="5.76644">
        <ele>590</ele>
        <time>2011-02-19T14:04:14Z</time>
      </trkpt>
      <trkpt lat="45.45651" lon="5.76644">
        <ele>588</ele>
        <time>2011-02-19T14:04:15Z</time>
      </trkpt>
      <trkpt lat="45.45637" lon="5.76641">
        <ele>585</ele>
        <time>2011-02-19T14:04:18Z</time>
      </trkpt>
      <trkpt lat="45.45615" lon="5.7663">
        <ele>581</ele>
        <time>2011-02-19T14:04:23Z</time>
      </trkpt>
      <trkpt lat="45.45601" lon="5.7662">
        <ele>578</ele>
        <time>2011-02-19T14:04:26Z</time>
      </trkpt>
      <trkpt lat="45.45592" lon="5.76608">
        <ele>577</ele>
        <time>2011-02-19T14:04:28Z</time>
      </trkpt>
      <trkpt lat="45.45584" lon="5.76596">
        <ele>577</ele>
        <time>2011-02-19T14:04:30Z</time>
      </trkpt>
      <trkpt lat="45.45572" lon="5.76559">
        <ele>576</ele>
        <time>2011-02-19T14:04:35Z</time>
      </trkpt>
      <trkpt lat="45.45567" lon="5.76548">
        <ele>576</ele>
        <time>2011-02-19T14:04:37Z</time>
      </trkpt>
      <trkpt lat="45.45553" lon="5.76521">
        <ele>575</ele>
        <time>2011-02-19T14:04:44Z</time>
      </trkpt>
      <trkpt lat="45.45537" lon="5.76517">
        <ele>572</ele>
        <time>2011-02-19T14:04:48Z</time>
      </trkpt>
      <trkpt lat="45.45519" lon="5.76502">
        <ele>570</ele>
        <time>2011-02-19T14:04:53Z</time>
      </trkpt>
      <trkpt lat="45.45512" lon="5.76489">
        <ele>569</ele>
        <time>2011-02-19T14:04:56Z</time>
      </trkpt>
      <trkpt lat="45.45513" lon="5.76464">
        <ele>568</ele>
        <time>2011-02-19T14:05:00Z</time>
      </trkpt>
      <trkpt lat="45.45513" lon="5.76457">
        <ele>568</ele>
        <time>2011-02-19T14:05:02Z</time>
      </trkpt>
      <trkpt lat="45.4551" lon="5.7645">
        <ele>568</ele>
        <time>2011-02-19T14:05:15Z</time>
      </trkpt>
      <trkpt lat="45.4551" lon="5.7645">
        <ele>568</ele>
        <time>2011-02-19T14:05:23Z</time>
      </trkpt>
      <trkpt lat="45.45513" lon="5.76442">
        <ele>568</ele>
        <time>2011-02-19T14:05:27Z</time>
      </trkpt>
      <trkpt lat="45.45527" lon="5.76414">
        <ele>564</ele>
        <time>2011-02-19T14:05:34Z</time>
      </trkpt>
      <trkpt lat="45.45531" lon="5.76404">
        <ele>563</ele>
        <time>2011-02-19T14:05:37Z</time>
      </trkpt>
      <trkpt lat="45.45536" lon="5.76391">
        <ele>559</ele>
        <time>2011-02-19T14:05:40Z</time>
      </trkpt>
      <trkpt lat="45.45542" lon="5.76374">
        <ele>556</ele>
        <time>2011-02-19T14:05:44Z</time>
      </trkpt>
      <trkpt lat="45.45545" lon="5.76367">
        <ele>555</ele>
        <time>2011-02-19T14:05:46Z</time>
      </trkpt>
      <trkpt lat="45.45543" lon="5.76362">
        <ele>555</ele>
        <time>2011-02-19T14:05:54Z</time>
      </trkpt>
      <trkpt lat="45.45532" lon="5.76361">
        <ele>557</ele>
        <time>2011-02-19T14:06:08Z</time>
      </trkpt>
      <trkpt lat="45.4553" lon="5.7636">
        <ele>558</ele>
        <time>2011-02-19T14:06:27Z</time>
      </trkpt>
      <trkpt lat="45.45523" lon="5.7636">
        <ele>559</ele>
        <time>2011-02-19T14:06:32Z</time>
      </trkpt>
      <trkpt lat="45.45501" lon="5.76357">
        <ele>562</ele>
        <time>2011-02-19T14:06:45Z</time>
      </trkpt>
      <trkpt lat="45.45474" lon="5.76349">
        <ele>561</ele>
        <time>2011-02-19T14:06:55Z</time>
      </trkpt>
      <trkpt lat="45.45468" lon="5.76349">
        <ele>563</ele>
        <time>2011-02-19T14:06:59Z</time>
      </trkpt>
      <trkpt lat="45.45455" lon="5.76351">
        <ele>566</ele>
        <time>2011-02-19T14:07:07Z</time>
      </trkpt>
      <trkpt lat="45.45445" lon="5.7635">
        <ele>568</ele>
        <time>2011-02-19T14:07:14Z</time>
      </trkpt>
      <trkpt lat="45.45438" lon="5.76351">
        <ele>570</ele>
        <time>2011-02-19T14:07:26Z</time>
      </trkpt>
      <trkpt lat="45.45423" lon="5.76347">
        <ele>568</ele>
        <time>2011-02-19T14:07:47Z</time>
      </trkpt>
      <trkpt lat="45.4541" lon="5.76347">
        <ele>571</ele>
        <time>2011-02-19T14:07:54Z</time>
      </trkpt>
      <trkpt lat="45.45401" lon="5.76346">
        <ele>571</ele>
        <time>2011-02-19T14:08:12Z</time>
      </trkpt>
      <trkpt lat="45.45401" lon="5.76346">
        <ele>571</ele>
        <time>2011-02-19T14:08:37Z</time>
      </trkpt>
      <trkpt lat="45.45401" lon="5.76347">
        <ele>571</ele>
        <time>2011-02-19T14:08:58Z</time>
      </trkpt>
      <trkpt lat="45.4539" lon="5.76338">
        <ele>569</ele>
        <time>2011-02-19T14:09:14Z</time>
      </trkpt>
      <trkpt lat="45.45385" lon="5.76332">
        <ele>569</ele>
        <time>2011-02-19T14:09:16Z</time>
      </trkpt>
      <trkpt lat="45.45374" lon="5.76326">
        <ele>568</ele>
        <time>2011-02-19T14:09:21Z</time>
      </trkpt>
      <trkpt lat="45.45358" lon="5.76315">
        <ele>564</ele>
        <time>2011-02-19T14:09:28Z</time>
      </trkpt>
      <trkpt lat="45.45346" lon="5.76305">
        <ele>562</ele>
        <time>2011-02-19T14:09:31Z</time>
      </trkpt>
      <trkpt lat="45.45337" lon="5.763">
        <ele>561</ele>
        <time>2011-02-19T14:09:33Z</time>
      </trkpt>
      <trkpt lat="45.45322" lon="5.76298">
        <ele>561</ele>
        <time>2011-02-19T14:09:39Z</time>
      </trkpt>
      <trkpt lat="45.45315" lon="5.76297">
        <ele>561</ele>
        <time>2011-02-19T14:09:41Z</time>
      </trkpt>
      <trkpt lat="45.45303" lon="5.76296">
        <ele>560</ele>
        <time>2011-02-19T14:09:45Z</time>
      </trkpt>
      <trkpt lat="45.4528" lon="5.76302">
        <ele>560</ele>
        <time>2011-02-19T14:09:53Z</time>
      </trkpt>
      <trkpt lat="45.45264" lon="5.76295">
        <ele>558</ele>
        <time>2011-02-19T14:09:58Z</time>
      </trkpt>
      <trkpt lat="45.4525" lon="5.76278">
        <ele>553</ele>
        <time>2011-02-19T14:10:02Z</time>
      </trkpt>
      <trkpt lat="45.45245" lon="5.76274">
        <ele>552</ele>
        <time>2011-02-19T14:10:03Z</time>
      </trkpt>
      <trkpt lat="45.45228" lon="5.76245">
        <ele>550</ele>
        <time>2011-02-19T14:10:10Z</time>
      </trkpt>
      <trkpt lat="45.45218" lon="5.76243">
        <ele>547</ele>
        <time>2011-02-19T14:10:21Z</time>
      </trkpt>
      <trkpt lat="45.45214" lon="5.76244">
        <ele>546</ele>
        <time>2011-02-19T14:10:31Z</time>
      </trkpt>
      <trkpt lat="45.45213" lon="5.76242">
        <ele>545</ele>
        <time>2011-02-19T14:10:33Z</time>
      </trkpt>
      <trkpt lat="45.45208" lon="5.76232">
        <ele>542</ele>
        <time>2011-02-19T14:10:43Z</time>
      </trkpt>
      <trkpt lat="45.45205" lon="5.76225">
        <ele>540</ele>
        <time>2011-02-19T14:10:45Z</time>
      </trkpt>
      <trkpt lat="45.45186" lon="5.7621">
        <ele>538</ele>
        <time>2011-02-19T14:10:50Z</time>
      </trkpt>
      <trkpt lat="45.45175" lon="5.76211">
        <ele>538</ele>
        <time>2011-02-19T14:10:55Z</time>
      </trkpt>
      <trkpt lat="45.45165" lon="5.7622">
        <ele>538</ele>
        <time>2011-02-19T14:11:04Z</time>
      </trkpt>
      <trkpt lat="45.45156" lon="5.76215">
        <ele>537</ele>
        <time>2011-02-19T14:11:07Z</time>
      </trkpt>
      <trkpt lat="45.45133" lon="5.76204">
        <ele>532</ele>
        <time>2011-02-19T14:11:12Z</time>
      </trkpt>
      <trkpt lat="45.45123" lon="5.76179">
        <ele>526</ele>
        <time>2011-02-19T14:11:15Z</time>
      </trkpt>
      <trkpt lat="45.45118" lon="5.7616">
        <ele>525</ele>
        <time>2011-02-19T14:11:17Z</time>
      </trkpt>
      <trkpt lat="45.45124" lon="5.76127">
        <ele>520</ele>
        <time>2011-02-19T14:11:22Z</time>
      </trkpt>
      <trkpt lat="45.4512" lon="5.76123">
        <ele>520</ele>
        <time>2011-02-19T14:11:23Z</time>
      </trkpt>
      <trkpt lat="45.45112" lon="5.76109">
        <ele>518</ele>
        <time>2011-02-19T14:11:33Z</time>
      </trkpt>
      <trkpt lat="45.45106" lon="5.76118">
        <ele>521</ele>
        <time>2011-02-19T14:11:43Z</time>
      </trkpt>
      <trkpt lat="45.45105" lon="5.76117">
        <ele>522</ele>
        <time>2011-02-19T14:11:57Z</time>
      </trkpt>
      <trkpt lat="45.45101" lon="5.7612">
        <ele>524</ele>
        <time>2011-02-19T14:12:17Z</time>
      </trkpt>
      <trkpt lat="45.45092" lon="5.7613">
        <ele>527</ele>
        <time>2011-02-19T14:12:33Z</time>
      </trkpt>
      <trkpt lat="45.45075" lon="5.76139">
        <ele>529</ele>
        <time>2011-02-19T14:12:46Z</time>
      </trkpt>
      <trkpt lat="45.45055" lon="5.76151">
        <ele>532</ele>
        <time>2011-02-19T14:12:59Z</time>
      </trkpt>
      <trkpt lat="45.45053" lon="5.76153">
        <ele>532</ele>
        <time>2011-02-19T14:13:01Z</time>
      </trkpt>
      <trkpt lat="45.4505" lon="5.76157">
        <ele>533</ele>
        <time>2011-02-19T14:13:04Z</time>
      </trkpt>
      <trkpt lat="45.45035" lon="5.76164">
        <ele>535</ele>
        <time>2011-02-19T14:13:14Z</time>
      </trkpt>
      <trkpt lat="45.4503" lon="5.76169">
        <ele>534</ele>
        <time>2011-02-19T14:13:16Z</time>
      </trkpt>
      <trkpt lat="45.45029" lon="5.76174">
        <ele>535</ele>
        <time>2011-02-19T14:13:19Z</time>
      </trkpt>
      <trkpt lat="45.45019" lon="5.76182">
        <ele>535</ele>
        <time>2011-02-19T14:13:29Z</time>
      </trkpt>
      <trkpt lat="45.45008" lon="5.76183">
        <ele>535</ele>
        <time>2011-02-19T14:14:08Z</time>
      </trkpt>
      <trkpt lat="45.45005" lon="5.76184">
        <ele>535</ele>
        <time>2011-02-19T14:14:39Z</time>
      </trkpt>
      <trkpt lat="45.44988" lon="5.76189">
        <ele>537</ele>
        <time>2011-02-19T14:14:49Z</time>
      </trkpt>
      <trkpt lat="45.44967" lon="5.76205">
        <ele>539</ele>
        <time>2011-02-19T14:15:01Z</time>
      </trkpt>
      <trkpt lat="45.44961" lon="5.76206">
        <ele>539</ele>
        <time>2011-02-19T14:15:05Z</time>
      </trkpt>
      <trkpt lat="45.44958" lon="5.76214">
        <ele>540</ele>
        <time>2011-02-19T14:15:09Z</time>
      </trkpt>
      <trkpt lat="45.44952" lon="5.76224">
        <ele>539</ele>
        <time>2011-02-19T14:15:13Z</time>
      </trkpt>
      <trkpt lat="45.44942" lon="5.76222">
        <ele>538</ele>
        <time>2011-02-19T14:15:19Z</time>
      </trkpt>
      <trkpt lat="45.44938" lon="5.76223">
        <ele>538</ele>
        <time>2011-02-19T14:15:33Z</time>
      </trkpt>
      <trkpt lat="45.44937" lon="5.76223">
        <ele>538</ele>
        <time>2011-02-19T14:17:00Z</time>
      </trkpt>
      <trkpt lat="45.44937" lon="5.76223">
        <ele>538</ele>
        <time>2011-02-19T14:17:41Z</time>
      </trkpt>
      <trkpt lat="45.44928" lon="5.76221">
        <ele>536</ele>
        <time>2011-02-19T14:17:46Z</time>
      </trkpt>
      <trkpt lat="45.44924" lon="5.76216">
        <ele>535</ele>
        <time>2011-02-19T14:17:48Z</time>
      </trkpt>
      <trkpt lat="45.44921" lon="5.76215">
        <ele>535</ele>
        <time>2011-02-19T14:17:56Z</time>
      </trkpt>
      <trkpt lat="45.44909" lon="5.76209">
        <ele>537</ele>
        <time>2011-02-19T14:18:09Z</time>
      </trkpt>
      <trkpt lat="45.449" lon="5.76202">
        <ele>538</ele>
        <time>2011-02-19T14:18:22Z</time>
      </trkpt>
      <trkpt lat="45.44897" lon="5.76197">
        <ele>538</ele>
        <time>2011-02-19T14:18:25Z</time>
      </trkpt>
      <trkpt lat="45.44893" lon="5.76194">
        <ele>538</ele>
        <time>2011-02-19T14:18:28Z</time>
      </trkpt>
      <trkpt lat="45.44884" lon="5.76189">
        <ele>537</ele>
        <time>2011-02-19T14:18:33Z</time>
      </trkpt>
      <trkpt lat="45.44881" lon="5.7618">
        <ele>536</ele>
        <time>2011-02-19T14:18:40Z</time>
      </trkpt>
      <trkpt lat="45.44883" lon="5.76172">
        <ele>535</ele>
        <time>2011-02-19T14:18:44Z</time>
      </trkpt>
      <trkpt lat="45.4489" lon="5.76156">
        <ele>534</ele>
        <time>2011-02-19T14:18:50Z</time>
      </trkpt>
      <trkpt lat="45.44889" lon="5.76144">
        <ele>534</ele>
        <time>2011-02-19T14:18:57Z</time>
      </trkpt>
      <trkpt lat="45.44885" lon="5.76137">
        <ele>535</ele>
        <time>2011-02-19T14:19:03Z</time>
      </trkpt>
      <trkpt lat="45.44879" lon="5.76128">
        <ele>537</ele>
        <time>2011-02-19T14:19:14Z</time>
      </trkpt>
      <trkpt lat="45.44879" lon="5.76124">
        <ele>537</ele>
        <time>2011-02-19T14:19:17Z</time>
      </trkpt>
      <trkpt lat="45.44875" lon="5.76123">
        <ele>537</ele>
        <time>2011-02-19T14:19:21Z</time>
      </trkpt>
      <trkpt lat="45.44871" lon="5.76121">
        <ele>536</ele>
        <time>2011-02-19T14:19:23Z</time>
      </trkpt>
      <trkpt lat="45.44862" lon="5.76123">
        <ele>536</ele>
        <time>2011-02-19T14:19:28Z</time>
      </trkpt>
      <trkpt lat="45.44852" lon="5.76144">
        <ele>539</ele>
        <time>2011-02-19T14:19:39Z</time>
      </trkpt>
      <trkpt lat="45.4485" lon="5.76147">
        <ele>540</ele>
        <time>2011-02-19T14:19:41Z</time>
      </trkpt>
      <trkpt lat="45.44851" lon="5.76158">
        <ele>541</ele>
        <time>2011-02-19T14:19:46Z</time>
      </trkpt>
      <trkpt lat="45.44855" lon="5.76158">
        <ele>541</ele>
        <time>2011-02-19T14:20:02Z</time>
      </trkpt>
      <trkpt lat="45.44854" lon="5.76158">
        <ele>540</ele>
        <time>2011-02-19T14:27:11Z</time>
      </trkpt>
      <trkpt lat="45.44851" lon="5.76155">
        <ele>539</ele>
        <time>2011-02-19T14:27:13Z</time>
      </trkpt>
      <trkpt lat="45.44853" lon="5.7614">
        <ele>537</ele>
        <time>2011-02-19T14:27:17Z</time>
      </trkpt>
      <trkpt lat="45.44859" lon="5.7613">
        <ele>535</ele>
        <time>2011-02-19T14:27:19Z</time>
      </trkpt>
      <trkpt lat="45.44857" lon="5.7611">
        <ele>531</ele>
        <time>2011-02-19T14:27:23Z</time>
      </trkpt>
      <trkpt lat="45.44854" lon="5.76105">
        <ele>531</ele>
        <time>2011-02-19T14:27:24Z</time>
      </trkpt>
      <trkpt lat="45.44838" lon="5.76101">
        <ele>529</ele>
        <time>2011-02-19T14:27:28Z</time>
      </trkpt>
      <trkpt lat="45.44823" lon="5.7611">
        <ele>526</ele>
        <time>2011-02-19T14:27:32Z</time>
      </trkpt>
      <trkpt lat="45.44816" lon="5.76112">
        <ele>525</ele>
        <time>2011-02-19T14:27:34Z</time>
      </trkpt>
      <trkpt lat="45.44801" lon="5.7611">
        <ele>523</ele>
        <time>2011-02-19T14:27:44Z</time>
      </trkpt>
      <trkpt lat="45.448" lon="5.76109">
        <ele>523</ele>
        <time>2011-02-19T14:28:00Z</time>
      </trkpt>
      <trkpt lat="45.44792" lon="5.76101">
        <ele>522</ele>
        <time>2011-02-19T14:28:05Z</time>
      </trkpt>
      <trkpt lat="45.44789" lon="5.76096">
        <ele>521</ele>
        <time>2011-02-19T14:28:07Z</time>
      </trkpt>
      <trkpt lat="45.44786" lon="5.7609">
        <ele>519</ele>
        <time>2011-02-19T14:28:19Z</time>
      </trkpt>
      <trkpt lat="45.44786" lon="5.76092">
        <ele>519</ele>
        <time>2011-02-19T14:28:25Z</time>
      </trkpt>
      <trkpt lat="45.44784" lon="5.761">
        <ele>516</ele>
        <time>2011-02-19T14:28:37Z</time>
      </trkpt>
      <trkpt lat="45.44781" lon="5.76103">
        <ele>514</ele>
        <time>2011-02-19T14:28:52Z</time>
      </trkpt>
      <trkpt lat="45.44778" lon="5.76103">
        <ele>512</ele>
        <time>2011-02-19T14:29:11Z</time>
      </trkpt>
      <trkpt lat="45.44775" lon="5.761">
        <ele>512</ele>
        <time>2011-02-19T14:29:44Z</time>
      </trkpt>
      <trkpt lat="45.44768" lon="5.76102">
        <ele>510</ele>
        <time>2011-02-19T14:29:48Z</time>
      </trkpt>
      <trkpt lat="45.44765" lon="5.76103">
        <ele>510</ele>
        <time>2011-02-19T14:29:50Z</time>
      </trkpt>
      <trkpt lat="45.44763" lon="5.76102">
        <ele>509</ele>
        <time>2011-02-19T14:29:52Z</time>
      </trkpt>
      <trkpt lat="45.44763" lon="5.76098">
        <ele>508</ele>
        <time>2011-02-19T14:29:54Z</time>
      </trkpt>
      <trkpt lat="45.44763" lon="5.7609">
        <ele>507</ele>
        <time>2011-02-19T14:29:58Z</time>
      </trkpt>
      <trkpt lat="45.44764" lon="5.76085">
        <ele>506</ele>
        <time>2011-02-19T14:30:00Z</time>
      </trkpt>
      <trkpt lat="45.44765" lon="5.76082">
        <ele>506</ele>
        <time>2011-02-19T14:30:01Z</time>
      </trkpt>
      <trkpt lat="45.44756" lon="5.76065">
        <ele>502</ele>
        <time>2011-02-19T14:30:06Z</time>
      </trkpt>
      <trkpt lat="45.44752" lon="5.76054">
        <ele>500</ele>
        <time>2011-02-19T14:30:08Z</time>
      </trkpt>
      <trkpt lat="45.44746" lon="5.76037">
        <ele>497</ele>
        <time>2011-02-19T14:30:11Z</time>
      </trkpt>
      <trkpt lat="45.44738" lon="5.76009">
        <ele>492</ele>
        <time>2011-02-19T14:30:15Z</time>
      </trkpt>
      <trkpt lat="45.44735" lon="5.75997">
        <ele>491</ele>
        <time>2011-02-19T14:30:17Z</time>
      </trkpt>
      <trkpt lat="45.44734" lon="5.75978">
        <ele>488</ele>
        <time>2011-02-19T14:30:27Z</time>
      </trkpt>
      <trkpt lat="45.44734" lon="5.75977">
        <ele>488</ele>
        <time>2011-02-19T14:31:07Z</time>
      </trkpt>
      <trkpt lat="45.44728" lon="5.75974">
        <ele>486</ele>
        <time>2011-02-19T14:31:19Z</time>
      </trkpt>
      <trkpt lat="45.44728" lon="5.75975">
        <ele>486</ele>
        <time>2011-02-19T14:31:35Z</time>
      </trkpt>
      <trkpt lat="45.4472" lon="5.75985">
        <ele>482</ele>
        <time>2011-02-19T14:31:41Z</time>
      </trkpt>
      <trkpt lat="45.44715" lon="5.75987">
        <ele>481</ele>
        <time>2011-02-19T14:31:44Z</time>
      </trkpt>
      <trkpt lat="45.44712" lon="5.75992">
        <ele>480</ele>
        <time>2011-02-19T14:31:46Z</time>
      </trkpt>
      <trkpt lat="45.44702" lon="5.76014">
        <ele>477</ele>
        <time>2011-02-19T14:31:52Z</time>
      </trkpt>
      <trkpt lat="45.4469" lon="5.76043">
        <ele>474</ele>
        <time>2011-02-19T14:31:57Z</time>
      </trkpt>
      <trkpt lat="45.4468" lon="5.76067">
        <ele>471</ele>
        <time>2011-02-19T14:32:01Z</time>
      </trkpt>
      <trkpt lat="45.44678" lon="5.76069">
        <ele>471</ele>
        <time>2011-02-19T14:32:02Z</time>
      </trkpt>
      <trkpt lat="45.4467" lon="5.76079">
        <ele>471</ele>
        <time>2011-02-19T14:32:07Z</time>
      </trkpt>
      <trkpt lat="45.44661" lon="5.76085">
        <ele>473</ele>
        <time>2011-02-19T14:32:19Z</time>
      </trkpt>
      <trkpt lat="45.44654" lon="5.76084">
        <ele>476</ele>
        <time>2011-02-19T14:32:30Z</time>
      </trkpt>
      <trkpt lat="45.44649" lon="5.76083">
        <ele>479</ele>
        <time>2011-02-19T14:32:41Z</time>
      </trkpt>
      <trkpt lat="45.44638" lon="5.76077">
        <ele>482</ele>
        <time>2011-02-19T14:32:53Z</time>
      </trkpt>
      <trkpt lat="45.44634" lon="5.76076">
        <ele>483</ele>
        <time>2011-02-19T14:33:03Z</time>
      </trkpt>
      <trkpt lat="45.44623" lon="5.76072">
        <ele>484</ele>
        <time>2011-02-19T14:33:11Z</time>
      </trkpt>
      <trkpt lat="45.44605" lon="5.7606">
        <ele>486</ele>
        <time>2011-02-19T14:33:28Z</time>
      </trkpt>
      <trkpt lat="45.44592" lon="5.76051">
        <ele>487</ele>
        <time>2011-02-19T14:33:39Z</time>
      </trkpt>
      <trkpt lat="45.44578" lon="5.76039">
        <ele>488</ele>
        <time>2011-02-19T14:33:50Z</time>
      </trkpt>
      <trkpt lat="45.4456" lon="5.7602">
        <ele>492</ele>
        <time>2011-02-19T14:34:06Z</time>
      </trkpt>
      <trkpt lat="45.44552" lon="5.7601">
        <ele>494</ele>
        <time>2011-02-19T14:34:12Z</time>
      </trkpt>
      <trkpt lat="45.44548" lon="5.76006">
        <ele>494</ele>
        <time>2011-02-19T14:34:15Z</time>
      </trkpt>
      <trkpt lat="45.44554" lon="5.76001">
        <ele>494</ele>
        <time>2011-02-19T14:34:34Z</time>
      </trkpt>
      <trkpt lat="45.44552" lon="5.76">
        <ele>495</ele>
        <time>2011-02-19T14:35:11Z</time>
      </trkpt>
      <trkpt lat="45.44547" lon="5.75993">
        <ele>495</ele>
        <time>2011-02-19T14:35:15Z</time>
      </trkpt>
      <trkpt lat="45.44534" lon="5.75956">
        <ele>493</ele>
        <time>2011-02-19T14:35:27Z</time>
      </trkpt>
      <trkpt lat="45.44517" lon="5.75938">
        <ele>493</ele>
        <time>2011-02-19T14:35:34Z</time>
      </trkpt>
      <trkpt lat="45.44493" lon="5.75926">
        <ele>494</ele>
        <time>2011-02-19T14:35:46Z</time>
      </trkpt>
      <trkpt lat="45.44482" lon="5.75916">
        <ele>492</ele>
        <time>2011-02-19T14:35:51Z</time>
      </trkpt>
      <trkpt lat="45.44453" lon="5.75912">
        <ele>488</ele>
        <time>2011-02-19T14:35:57Z</time>
      </trkpt>
      <trkpt lat="45.44443" lon="5.75913">
        <ele>488</ele>
        <time>2011-02-19T14:35:59Z</time>
      </trkpt>
      <trkpt lat="45.44421" lon="5.75919">
        <ele>485</ele>
        <time>2011-02-19T14:36:04Z</time>
      </trkpt>
      <trkpt lat="45.44416" lon="5.75919">
        <ele>485</ele>
        <time>2011-02-19T14:36:05Z</time>
      </trkpt>
      <trkpt lat="45.44387" lon="5.75913">
        <ele>485</ele>
        <time>2011-02-19T14:36:14Z</time>
      </trkpt>
      <trkpt lat="45.44365" lon="5.75881">
        <ele>482</ele>
        <time>2011-02-19T14:36:24Z</time>
      </trkpt>
      <trkpt lat="45.44361" lon="5.75866">
        <ele>478</ele>
        <time>2011-02-19T14:36:26Z</time>
      </trkpt>
      <trkpt lat="45.44345" lon="5.75845">
        <ele>477</ele>
        <time>2011-02-19T14:36:31Z</time>
      </trkpt>
      <trkpt lat="45.44333" lon="5.75846">
        <ele>476</ele>
        <time>2011-02-19T14:36:34Z</time>
      </trkpt>
      <trkpt lat="45.44312" lon="5.75844">
        <ele>472</ele>
        <time>2011-02-19T14:36:38Z</time>
      </trkpt>
      <trkpt lat="45.44283" lon="5.75829">
        <ele>467</ele>
        <time>2011-02-19T14:36:45Z</time>
      </trkpt>
      <trkpt lat="45.44274" lon="5.7582">
        <ele>466</ele>
        <time>2011-02-19T14:36:47Z</time>
      </trkpt>
      <trkpt lat="45.44271" lon="5.75811">
        <ele>467</ele>
        <time>2011-02-19T14:36:54Z</time>
      </trkpt>
      <trkpt lat="45.44264" lon="5.75783">
        <ele>464</ele>
        <time>2011-02-19T14:37:03Z</time>
      </trkpt>
      <trkpt lat="45.44263" lon="5.75777">
        <ele>463</ele>
        <time>2011-02-19T14:37:04Z</time>
      </trkpt>
      <trkpt lat="45.4426" lon="5.75732">
        <ele>461</ele>
        <time>2011-02-19T14:37:10Z</time>
      </trkpt>
      <trkpt lat="45.44248" lon="5.75704">
        <ele>456</ele>
        <time>2011-02-19T14:37:15Z</time>
      </trkpt>
      <trkpt lat="45.44244" lon="5.75693">
        <ele>456</ele>
        <time>2011-02-19T14:37:17Z</time>
      </trkpt>
      <trkpt lat="45.44235" lon="5.75676">
        <ele>453</ele>
        <time>2011-02-19T14:37:20Z</time>
      </trkpt>
      <trkpt lat="45.44226" lon="5.75645">
        <ele>448</ele>
        <time>2011-02-19T14:37:26Z</time>
      </trkpt>
      <trkpt lat="45.44221" lon="5.75643">
        <ele>448</ele>
        <time>2011-02-19T14:37:27Z</time>
      </trkpt>
      <trkpt lat="45.44213" lon="5.75631">
        <ele>446</ele>
        <time>2011-02-19T14:37:32Z</time>
      </trkpt>
      <trkpt lat="45.44207" lon="5.75615">
        <ele>445</ele>
        <time>2011-02-19T14:37:35Z</time>
      </trkpt>
      <trkpt lat="45.44196" lon="5.75575">
        <ele>445</ele>
        <time>2011-02-19T14:37:46Z</time>
      </trkpt>
      <trkpt lat="45.44189" lon="5.75571">
        <ele>446</ele>
        <time>2011-02-19T14:37:57Z</time>
      </trkpt>
      <trkpt lat="45.44189" lon="5.75572">
        <ele>446</ele>
        <time>2011-02-19T14:38:12Z</time>
      </trkpt>
      <trkpt lat="45.44165" lon="5.75566">
        <ele>445</ele>
        <time>2011-02-19T14:38:23Z</time>
      </trkpt>
      <trkpt lat="45.44158" lon="5.75567">
        <ele>444</ele>
        <time>2011-02-19T14:38:25Z</time>
      </trkpt>
      <trkpt lat="45.44138" lon="5.75569">
        <ele>441</ele>
        <time>2011-02-19T14:38:29Z</time>
      </trkpt>
      <trkpt lat="45.44122" lon="5.75559">
        <ele>439</ele>
        <time>2011-02-19T14:38:32Z</time>
      </trkpt>
      <trkpt lat="45.44094" lon="5.75555">
        <ele>439</ele>
        <time>2011-02-19T14:38:37Z</time>
      </trkpt>
      <trkpt lat="45.44057" lon="5.7557">
        <ele>438</ele>
        <time>2011-02-19T14:38:47Z</time>
      </trkpt>
      <trkpt lat="45.44057" lon="5.75571">
        <ele>438</ele>
        <time>2011-02-19T14:39:19Z</time>
      </trkpt>
      <trkpt lat="45.44044" lon="5.75575">
        <ele>437</ele>
        <time>2011-02-19T14:39:24Z</time>
      </trkpt>
      <trkpt lat="45.43998" lon="5.75602">
        <ele>436</ele>
        <time>2011-02-19T14:39:37Z</time>
      </trkpt>
      <trkpt lat="45.43971" lon="5.756">
        <ele>432</ele>
        <time>2011-02-19T14:39:42Z</time>
      </trkpt>
      <trkpt lat="45.43965" lon="5.75599">
        <ele>432</ele>
        <time>2011-02-19T14:39:43Z</time>
      </trkpt>
      <trkpt lat="45.43938" lon="5.75606">
        <ele>429</ele>
        <time>2011-02-19T14:39:47Z</time>
      </trkpt>
      <trkpt lat="45.43927" lon="5.7561">
        <ele>429</ele>
        <time>2011-02-19T14:39:49Z</time>
      </trkpt>
      <trkpt lat="45.4392" lon="5.7561">
        <ele>429</ele>
        <time>2011-02-19T14:39:51Z</time>
      </trkpt>
      <trkpt lat="45.43917" lon="5.75611">
        <ele>429</ele>
        <time>2011-02-19T14:40:04Z</time>
      </trkpt>
      <trkpt lat="45.43917" lon="5.75611">
        <ele>429</ele>
        <time>2011-02-19T14:40:12Z</time>
      </trkpt>
      <trkpt lat="45.43915" lon="5.75629">
        <ele>426</ele>
        <time>2011-02-19T14:40:17Z</time>
      </trkpt>
      <trkpt lat="45.43911" lon="5.75634">
        <ele>425</ele>
        <time>2011-02-19T14:40:18Z</time>
      </trkpt>
      <trkpt lat="45.43901" lon="5.75646">
        <ele>421</ele>
        <time>2011-02-19T14:40:20Z</time>
      </trkpt>
      <trkpt lat="45.4389" lon="5.75677">
        <ele>416</ele>
        <time>2011-02-19T14:40:25Z</time>
      </trkpt>
      <trkpt lat="45.43895" lon="5.75698">
        <ele>414</ele>
        <time>2011-02-19T14:40:28Z</time>
      </trkpt>
      <trkpt lat="45.4391" lon="5.7572">
        <ele>410</ele>
        <time>2011-02-19T14:40:32Z</time>
      </trkpt>
      <trkpt lat="45.43921" lon="5.75733">
        <ele>406</ele>
        <time>2011-02-19T14:40:34Z</time>
      </trkpt>
      <trkpt lat="45.43941" lon="5.75757">
        <ele>404</ele>
        <time>2011-02-19T14:40:38Z</time>
      </trkpt>
      <trkpt lat="45.43948" lon="5.75768">
        <ele>405</ele>
        <time>2011-02-19T14:40:41Z</time>
      </trkpt>
      <trkpt lat="45.43957" lon="5.75782">
        <ele>402</ele>
        <time>2011-02-19T14:40:45Z</time>
      </trkpt>
      <trkpt lat="45.43956" lon="5.75791">
        <ele>402</ele>
        <time>2011-02-19T14:40:50Z</time>
      </trkpt>
      <trkpt lat="45.43901" lon="5.75738">
        <ele>401</ele>
        <time>2011-02-19T14:41:09Z</time>
      </trkpt>
      <trkpt lat="45.43898" lon="5.75736">
        <ele>401</ele>
        <time>2011-02-19T14:41:10Z</time>
      </trkpt>
      <trkpt lat="45.43876" lon="5.75726">
        <ele>401</ele>
        <time>2011-02-19T14:41:16Z</time>
      </trkpt>
      <trkpt lat="45.43863" lon="5.75733">
        <ele>400</ele>
        <time>2011-02-19T14:41:20Z</time>
      </trkpt>
      <trkpt lat="45.43857" lon="5.75761">
        <ele>398</ele>
        <time>2011-02-19T14:41:24Z</time>
      </trkpt>
      <trkpt lat="45.43857" lon="5.75791">
        <ele>398</ele>
        <time>2011-02-19T14:41:28Z</time>
      </trkpt>
      <trkpt lat="45.43869" lon="5.75834">
        <ele>400</ele>
        <time>2011-02-19T14:41:37Z</time>
      </trkpt>
      <trkpt lat="45.4387" lon="5.75841">
        <ele>400</ele>
        <time>2011-02-19T14:41:39Z</time>
      </trkpt>
      <trkpt lat="45.43869" lon="5.75832">
        <ele>400</ele>
        <time>2011-02-19T14:41:46Z</time>
      </trkpt>
      <trkpt lat="45.43865" lon="5.75826">
        <ele>400</ele>
        <time>2011-02-19T14:41:53Z</time>
      </trkpt>
      <trkpt lat="45.43878" lon="5.75867">
        <ele>400</ele>
        <time>2011-02-19T14:42:04Z</time>
      </trkpt>
      <trkpt lat="45.43905" lon="5.75952">
        <ele>400</ele>
        <time>2011-02-19T14:42:18Z</time>
      </trkpt>
      <trkpt lat="45.43914" lon="5.75979">
        <ele>400</ele>
        <time>2011-02-19T14:42:22Z</time>
      </trkpt>
      <trkpt lat="45.43942" lon="5.76029">
        <ele>400</ele>
        <time>2011-02-19T14:42:32Z</time>
      </trkpt>
      <trkpt lat="45.4397" lon="5.76069">
        <ele>400</ele>
        <time>2011-02-19T14:42:41Z</time>
      </trkpt>
      <trkpt lat="45.43981" lon="5.76083">
        <ele>400</ele>
        <time>2011-02-19T14:42:44Z</time>
      </trkpt>
      <trkpt lat="45.44058" lon="5.762">
        <ele>401</ele>
        <time>2011-02-19T14:43:06Z</time>
      </trkpt>
      <trkpt lat="45.44134" lon="5.76315">
        <ele>403</ele>
        <time>2011-02-19T14:43:29Z</time>
      </trkpt>
      <trkpt lat="45.44176" lon="5.76376">
        <ele>405</ele>
        <time>2011-02-19T14:43:42Z</time>
      </trkpt>
      <trkpt lat="45.44199" lon="5.76421">
        <ele>401</ele>
        <time>2011-02-19T14:43:50Z</time>
      </trkpt>
      <trkpt lat="45.44216" lon="5.76443">
        <ele>399</ele>
        <time>2011-02-19T14:43:53Z</time>
      </trkpt>
      <trkpt lat="45.44243" lon="5.76475">
        <ele>402</ele>
        <time>2011-02-19T14:43:59Z</time>
      </trkpt>
      <trkpt lat="45.44246" lon="5.76479">
        <ele>402</ele>
        <time>2011-02-19T14:44:00Z</time>
      </trkpt>
      <trkpt lat="45.4427" lon="5.76502">
        <ele>406</ele>
        <time>2011-02-19T14:44:11Z</time>
      </trkpt>
      <trkpt lat="45.44279" lon="5.76508">
        <ele>407</ele>
        <time>2011-02-19T14:44:16Z</time>
      </trkpt>
      <trkpt lat="45.4428" lon="5.76512">
        <ele>407</ele>
        <time>2011-02-19T14:44:32Z</time>
      </trkpt>
      <trkpt lat="45.4428" lon="5.76512">
        <ele>407</ele>
        <time>2011-02-19T14:44:33Z</time>
      </trkpt>
      <trkpt lat="45.4431" lon="5.76547">
        <ele>407</ele>
        <time>2011-02-19T14:44:48Z</time>
      </trkpt>
      <trkpt lat="45.44359" lon="5.76598">
        <ele>407</ele>
        <time>2011-02-19T14:45:07Z</time>
      </trkpt>
      <trkpt lat="45.44372" lon="5.7661">
        <ele>408</ele>
        <time>2011-02-19T14:45:13Z</time>
      </trkpt>
      <trkpt lat="45.44372" lon="5.76616">
        <ele>407</ele>
        <time>2011-02-19T14:45:19Z</time>
      </trkpt>
      <trkpt lat="45.4438" lon="5.76621">
        <ele>408</ele>
        <time>2011-02-19T14:45:24Z</time>
      </trkpt>
      <trkpt lat="45.444" lon="5.76684">
        <ele>411</ele>
        <time>2011-02-19T14:45:40Z</time>
      </trkpt>
      <trkpt lat="45.44422" lon="5.76747">
        <ele>412</ele>
        <time>2011-02-19T14:45:56Z</time>
      </trkpt>
      <trkpt lat="45.44454" lon="5.76788">
        <ele>411</ele>
        <time>2011-02-19T14:46:08Z</time>
      </trkpt>
      <trkpt lat="45.44487" lon="5.76871">
        <ele>410</ele>
        <time>2011-02-19T14:46:23Z</time>
      </trkpt>
      <trkpt lat="45.44517" lon="5.76949">
        <ele>410</ele>
        <time>2011-02-19T14:46:40Z</time>
      </trkpt>
      <trkpt lat="45.44547" lon="5.77035">
        <ele>411</ele>
        <time>2011-02-19T14:46:58Z</time>
      </trkpt>
      <trkpt lat="45.44551" lon="5.77104">
        <ele>411</ele>
        <time>2011-02-19T14:47:12Z</time>
      </trkpt>
      <trkpt lat="45.44545" lon="5.7713">
        <ele>411</ele>
        <time>2011-02-19T14:47:17Z</time>
      </trkpt>
      <trkpt lat="45.44517" lon="5.77229">
        <ele>412</ele>
        <time>2011-02-19T14:47:36Z</time>
      </trkpt>
      <trkpt lat="45.44533" lon="5.7732">
        <ele>413</ele>
        <time>2011-02-19T14:47:55Z</time>
      </trkpt>
      <trkpt lat="45.44528" lon="5.77375">
        <ele>414</ele>
        <time>2011-02-19T14:48:08Z</time>
      </trkpt>
      <trkpt lat="45.44511" lon="5.77483">
        <ele>413</ele>
        <time>2011-02-19T14:48:25Z</time>
      </trkpt>
      <trkpt lat="45.44491" lon="5.7765">
        <ele>414</ele>
        <time>2011-02-19T14:48:41Z</time>
      </trkpt>
      <trkpt lat="45.44468" lon="5.77813">
        <ele>417</ele>
        <time>2011-02-19T14:48:58Z</time>
      </trkpt>
      <trkpt lat="45.44447" lon="5.7794">
        <ele>421</ele>
        <time>2011-02-19T14:49:18Z</time>
      </trkpt>
      <trkpt lat="45.44438" lon="5.77968">
        <ele>422</ele>
        <time>2011-02-19T14:49:29Z</time>
      </trkpt>
      <trkpt lat="45.44437" lon="5.77971">
        <ele>423</ele>
        <time>2011-02-19T14:49:59Z</time>
      </trkpt>
      <trkpt lat="45.44437" lon="5.77971">
        <ele>422</ele>
        <time>2011-02-19T14:51:33Z</time>
      </trkpt>
      <trkpt lat="45.44437" lon="5.77972">
        <ele>422</ele>
        <time>2011-02-19T14:51:42Z</time>
      </trkpt>
      <trkpt lat="45.44436" lon="5.77972">
        <ele>422</ele>
        <time>2011-02-19T14:51:56Z</time>
      </trkpt>
      <trkpt lat="45.44437" lon="5.77969">
        <ele>421</ele>
        <time>2011-02-19T14:54:45Z</time>
      </trkpt>
      <trkpt lat="45.44439" lon="5.77969">
        <ele>421</ele>
        <time>2011-02-19T14:54:58Z</time>
      </trkpt>
      <trkpt lat="45.44439" lon="5.7797">
        <ele>420</ele>
        <time>2011-02-19T14:55:23Z</time>
      </trkpt>
      <trkpt lat="45.44438" lon="5.77972">
        <ele>421</ele>
        <time>2011-02-19T14:55:35Z</time>
      </trkpt>
      <trkpt lat="45.44441" lon="5.77975">
        <ele>421</ele>
        <time>2011-02-19T14:55:42Z</time>
      </trkpt>
      <trkpt lat="45.44442" lon="5.77983">
        <ele>421</ele>
        <time>2011-02-19T14:55:46Z</time>
      </trkpt>
      <trkpt lat="45.44436" lon="5.78033">
        <ele>421</ele>
        <time>2011-02-19T14:55:58Z</time>
      </trkpt>
      <trkpt lat="45.44427" lon="5.78113">
        <ele>422</ele>
        <time>2011-02-19T14:56:15Z</time>
      </trkpt>
      <trkpt lat="45.44417" lon="5.78207">
        <ele>423</ele>
        <time>2011-02-19T14:56:37Z</time>
      </trkpt>
      <trkpt lat="45.44425" lon="5.7825">
        <ele>424</ele>
        <time>2011-02-19T14:56:51Z</time>
      </trkpt>
      <trkpt lat="45.44419" lon="5.78258">
        <ele>424</ele>
        <time>2011-02-19T14:56:56Z</time>
      </trkpt>
      <trkpt lat="45.44415" lon="5.7826">
        <ele>424</ele>
        <time>2011-02-19T14:56:58Z</time>
      </trkpt>
      <trkpt lat="45.44373" lon="5.78245">
        <ele>424</ele>
        <time>2011-02-19T14:57:15Z</time>
      </trkpt>
    </trkseg>
  </trk>
</gpx>